Time;durP1;ratioP1;P1;durP2;ratioP2;P2;SDS_P1;SDS_P2;PMS_P1;PMS_P2;Temp;Humidity;BMP_temperature;BMP_pressure;BME280_temperature;BME280_humidity;BME280_pressure;Samples;Min_cycle;Max_cycle;Signal;HPM_P1;HPM_P2
2022/06/01 00:01:48;;;;;;;13.43;9.13;;;;;;;11.85;71.64;98586.73;2294247;77;20910;-80
2022/06/01 00:04:48;;;;;;;12.03;8.00;;;;;;;11.87;72.35;98585.00;2294539;78;20948;-80
2022/06/01 00:07:49;;;;;;;20.50;10.10;;;;;;;11.86;72.10;98587.17;2294580;77;20870;-81
2022/06/01 00:10:49;;;;;;;25.33;11.13;;;;;;;11.77;72.25;98588.42;2294600;77;21028;-80
2022/06/01 00:13:49;;;;;;;20.37;11.27;;;;;;;11.73;72.48;98594.08;2294255;77;20970;-80
2022/06/01 00:16:55;;;;;;;15.17;9.73;;;;;;;11.72;72.77;98600.17;2294686;77;20973;-80
2022/06/01 00:19:50;;;;;;;19.10;10.47;;;;;;;11.70;72.91;98598.42;2294842;77;20929;-79
2022/06/01 00:22:51;;;;;;;14.90;9.98;;;;;;;11.64;73.21;98599.28;2294766;77;20934;-80
2022/06/01 00:25:51;;;;;;;12.80;9.30;;;;;;;11.59;73.42;98597.52;2294465;77;20951;-80
2022/06/01 00:28:51;;;;;;;14.77;10.50;;;;;;;11.55;73.61;98599.25;2294680;77;20914;-79
2022/06/01 00:31:52;;;;;;;14.10;9.53;;;;;;;11.55;73.69;98599.67;2294419;77;21332;-80
2022/06/01 00:34:52;;;;;;;14.70;9.27;;;;;;;11.54;73.92;98600.55;2294376;77;20961;-80
2022/06/01 00:37:53;;;;;;;16.73;9.90;;;;;;;11.54;73.85;98601.85;2293819;77;20957;-80
2022/06/01 00:40:53;;;;;;;13.13;8.63;;;;;;;11.57;74.10;98594.02;2303719;77;21354;-80
2022/06/01 00:43:53;;;;;;;12.07;9.17;;;;;;;11.58;74.08;98600.56;2307961;77;21018;-80
2022/06/01 00:46:54;;;;;;;10.40;8.40;;;;;;;11.60;74.27;98606.67;2307778;77;20903;-80
2022/06/01 00:49:54;;;;;;;14.13;8.57;;;;;;;11.60;74.30;98590.98;2307843;77;21364;-80
2022/06/01 00:52:55;;;;;;;11.90;7.83;;;;;;;11.58;74.47;98595.33;2307681;77;20945;-80
2022/06/01 00:55:55;;;;;;;7.27;6.57;;;;;;;11.60;74.54;98594.03;2308071;77;20964;-80
2022/06/01 00:58:55;;;;;;;13.37;7.63;;;;;;;11.60;74.55;98591.42;2307711;77;20922;-80
2022/06/01 01:01:56;;;;;;;9.20;7.27;;;;;;;11.59;74.58;98582.70;2307797;77;20988;-80
2022/06/01 01:04:56;;;;;;;10.07;6.90;;;;;;;11.59;74.71;98585.75;2307746;77;20976;-80
2022/06/01 01:07:57;;;;;;;7.57;6.87;;;;;;;11.60;74.76;98583.58;2308018;77;20953;-80
2022/06/01 01:10:57;;;;;;;9.70;8.17;;;;;;;11.61;74.86;98589.24;2308050;77;20964;-80
2022/06/01 01:13:57;;;;;;;8.30;6.83;;;;;;;11.62;74.92;98590.55;2307915;77;20973;-80
2022/06/01 01:16:59;;;;;;;8.00;7.30;;;;;;;11.60;74.93;98585.75;2308165;77;20970;-80
2022/06/01 01:19:59;;;;;;;229.80;21.27;;;;;;;11.63;75.07;98583.16;2307887;77;20909;-81
2022/06/01 01:22:59;;;;;;;36.70;9.33;;;;;;;11.65;75.20;98585.34;2307566;77;20910;-80
2022/06/01 01:25:59;;;;;;;340.47;32.73;;;;;;;11.73;75.27;98587.98;2306921;77;21297;-81
2022/06/01 01:28:59;;;;;;;12.03;8.03;;;;;;;11.93;75.76;98588.06;2307812;77;20929;-81
2022/06/01 01:32:00;;;;;;;8.65;7.75;;;;;;;12.01;75.12;98588.52;2308307;77;20925;-81
2022/06/01 01:35:00;;;;;;;10.43;7.60;;;;;;;12.01;74.80;98584.59;2308985;77;20908;-80
2022/06/01 01:38:01;;;;;;;9.80;7.63;;;;;;;12.00;74.76;98584.59;2308553;77;20955;-81
2022/06/01 01:41:01;;;;;;;11.37;7.47;;;;;;;11.98;74.71;98583.72;2255022;77;20932;-81
2022/06/01 01:44:01;;;;;;;11.60;8.30;;;;;;;11.95;74.91;98580.66;2231851;80;20978;-80
2022/06/01 01:47:02;;;;;;;12.73;7.77;;;;;;;11.93;74.89;98582.39;2231300;80;20907;-81
2022/06/01 01:50:07;;;;;;;11.70;7.17;;;;;;;11.90;74.98;98572.36;2231544;80;20951;-81
2022/06/01 01:53:03;;;;;;;14.07;7.90;;;;;;;11.85;75.07;98565.81;2230757;80;20955;-81
2022/06/01 01:56:03;;;;;;;12.20;7.40;;;;;;;11.85;75.30;98559.71;2231248;80;20981;-81
2022/06/01 01:59:03;;;;;;;38.30;22.07;;;;;;;;;;2230928;80;20944;-81
2022/06/01 02:02:04;;;;;;;42.27;20.03;;;;;;;11.88;77.35;98610.28;2231224;80;20959;-81
2022/06/01 02:08:23;;;;;;;16.67;13.00;;;;;;;11.93;77.11;98613.78;2231033;80;21055;-80
2022/06/01 02:14:42;;;;;;;78.42;17.32;;;;;;;12.00;77.33;98606.39;2230569;80;21427;-82
2022/06/01 02:17:48;;;;;;;40.83;13.83;;;;;;;12.15;76.59;98601.66;2229943;80;20955;-82
2022/06/01 02:20:43;;;;;;;46.73;13.60;;;;;;;12.19;76.64;98598.61;2230388;80;20940;-78
2022/06/01 02:23:43;;;;;;;20.97;12.33;;;;;;;12.24;76.46;98596.88;2231528;80;20917;-81
2022/06/01 02:26:44;;;;;;;150.87;22.27;;;;;;;12.24;76.32;98600.80;2230838;80;20979;-81
2022/06/01 02:29:44;;;;;;;65.93;16.93;;;;;;;12.22;76.18;98597.30;2230808;80;20908;-81
2022/06/01 02:32:45;;;;;;;77.08;17.10;;;;;;;12.24;76.34;98601.67;2230890;80;20908;-81
2022/06/01 02:35:45;;;;;;;25.50;11.68;;;;;;;12.30;76.29;98603.42;2231009;80;20947;-81
2022/06/01 02:38:45;;;;;;;16.40;11.63;;;;;;;12.37;76.46;98600.81;2230861;80;21323;-80
2022/06/01 02:45:05;;;;;;;17.80;11.93;;;;;;;12.59;76.30;98606.92;2230105;80;20968;-81
2022/06/01 02:48:05;;;;;;;15.68;13.75;;;;;;;12.69;76.33;98615.22;2230665;80;20927;-81
2022/06/01 02:51:06;;;;;;;15.00;11.88;;;;;;;12.79;76.07;98606.05;2230074;80;20998;-80
2022/06/01 02:54:06;;;;;;;15.53;12.00;;;;;;;12.89;75.96;98611.27;2230118;80;20992;-77
2022/06/01 02:57:06;;;;;;;16.90;11.73;;;;;;;12.97;75.70;98604.28;2229437;80;21275;-81
2022/06/01 03:00:07;;;;;;;14.53;10.93;;;;;;;13.04;75.35;98599.93;2230237;80;20998;-81
2022/06/01 03:03:07;;;;;;;15.35;10.15;;;;;;;13.11;75.06;98600.35;2229626;80;20936;-80
2022/06/01 03:06:08;;;;;;;13.78;9.68;;;;;;;13.19;74.80;98593.81;2230323;80;20932;-80
2022/06/01 03:09:10;;;;;;;14.83;9.73;;;;;;;13.25;74.72;98601.22;2229166;80;20983;-79
2022/06/01 03:12:09;;;;;;;13.28;8.88;;;;;;;13.31;74.43;98598.58;2228962;80;21315;-79
2022/06/01 03:15:09;;;;;;;13.23;9.53;;;;;;;13.36;74.14;98596.81;2229035;80;21050;-78
2022/06/01 03:18:09;;;;;;;13.28;8.70;;;;;;;13.41;73.94;98602.48;2228666;80;20955;-79
2022/06/01 03:21:10;;;;;;;10.90;8.93;;;;;;;13.45;73.82;98603.78;2229060;80;20980;-80
2022/06/01 03:24:10;;;;;;;12.10;8.00;;;;;;;13.49;73.75;98602.02;2229121;80;21276;-81
2022/06/01 03:27:10;;;;;;;13.00;7.95;;;;;;;13.50;73.70;98599.83;2229214;80;20924;-81
2022/06/01 03:30:11;;;;;;;9.38;7.28;;;;;;;13.54;73.84;98610.74;2229677;80;21074;-80
2022/06/01 03:33:13;;;;;;;10.50;7.75;;;;;;;13.58;73.59;98625.59;2229044;80;20932;-82
2022/06/01 03:36:12;;;;;;;8.80;7.22;;;;;;;13.63;73.35;98619.88;2227633;80;21470;-80
2022/06/01 03:39:12;;;;;;;10.90;7.20;;;;;;;13.71;73.48;98619.41;2228955;80;20956;-82
2022/06/01 03:42:12;;;;;;;8.40;7.08;;;;;;;13.77;73.02;98619.39;2228016;78;21022;-81
2022/06/01 03:48:32;;;;;;;12.25;7.75;;;;;;;13.91;72.90;98627.22;2227856;80;20971;-81
2022/06/01 03:51:32;;;;;;;9.75;7.47;;;;;;;13.95;72.76;98631.58;2229593;80;20983;-81
2022/06/01 03:54:32;;;;;;;9.38;6.47;;;;;;;13.93;72.62;98643.39;2227141;80;21351;-82
2022/06/01 03:57:33;;;;;;;7.50;6.70;;;;;;;13.92;72.54;98640.78;2227437;80;21044;-80
2022/06/01 04:00:33;;;;;;;8.13;7.28;;;;;;;13.91;72.54;98641.66;2226715;80;20990;-81
2022/06/01 04:03:33;;;;;;;8.00;6.72;;;;;;;13.90;72.58;98645.16;2226795;80;20992;-83
2022/06/01 04:06:34;;;;;;;7.35;6.33;;;;;;;13.91;72.75;98639.03;2227087;80;20947;-82
2022/06/01 04:09:34;;;;;;;10.25;6.58;;;;;;;13.93;72.62;98647.77;2226881;80;21010;-82
2022/06/01 04:12:35;;;;;;;11.50;6.40;;;;;;;13.92;72.51;98649.52;2226896;80;20987;-81
2022/06/01 04:15:35;;;;;;;8.90;6.10;;;;;;;13.96;72.56;98653.00;2226578;80;21050;-81
2022/06/01 04:18:35;;;;;;;7.85;6.87;;;;;;;13.98;72.44;98654.73;2225935;80;20982;-81
2022/06/01 04:21:36;;;;;;;11.83;6.87;;;;;;;14.05;72.38;98653.40;2226146;80;20947;-83
2022/06/01 04:24:36;;;;;;;7.70;6.50;;;;;;;14.14;72.65;98654.22;2226199;80;20988;-78
2022/06/01 04:27:38;;;;;;;22.22;7.80;;;;;;;14.17;73.00;98664.70;2226695;80;20971;-79
2022/06/01 04:30:37;;;;;;;9.15;6.58;;;;;;;14.24;72.73;98676.05;2225959;80;20995;-81
2022/06/01 04:33:38;;;;;;;13.10;6.80;;;;;;;14.32;72.49;98686.93;2225875;80;20960;-82
2022/06/01 04:36:38;;;;;;;19.82;7.08;;;;;;;14.40;72.29;98689.52;2225869;80;20967;-84
2022/06/01 04:39:38;;;;;;;7.67;6.90;;;;;;;14.44;72.19;98684.70;2226368;80;21030;-82
2022/06/01 04:42:39;;;;;;;8.35;5.85;;;;;;;14.46;72.16;98679.00;2225204;78;21006;-83
2022/06/01 04:45:39;;;;;;;54.20;8.90;;;;;;;14.47;71.98;98670.69;2226728;80;21014;-81
2022/06/01 04:48:40;;;;;;;9.90;6.62;;;;;;;14.50;72.04;98658.84;2226853;80;20939;-79
2022/06/01 04:51:40;;;;;;;11.97;6.30;;;;;;;14.57;72.71;98654.85;2223783;80;20990;-80
2022/06/01 04:54:40;;;;;;;8.25;6.45;;;;;;;14.61;72.89;98647.38;2224553;80;21717;-79
2022/06/01 04:57:41;;;;;;;20.27;10.72;;;;;;;14.65;73.03;98644.29;2225323;80;20936;-81
2022/06/01 05:00:41;;;;;;;23.38;9.83;;;;;;;14.66;73.63;98644.72;2225246;80;20976;-82
2022/06/01 05:03:42;;;;;;;10.63;7.08;;;;;;;14.71;73.61;98646.00;2225768;80;21403;-81
2022/06/01 05:06:42;;;;;;;12.70;5.80;;;;;;;14.77;73.37;98647.30;2226158;80;21946;-82
2022/06/01 05:09:46;;;;;;;20.68;7.20;;;;;;;14.77;72.79;98654.73;2226467;80;20983;-80
2022/06/01 05:12:46;;;;;;;8.93;6.15;;;;;;;14.78;73.34;98655.61;2226781;80;20987;-81
2022/06/01 05:15:46;;;;;;;52.40;8.83;;;;;;;14.73;73.85;98654.73;2225604;80;21421;-80
2022/06/01 05:18:47;;;;;;;38.38;7.05;;;;;;;14.71;73.97;98653.88;2226164;80;21007;-82
2022/06/01 05:21:47;;;;;;;11.30;5.85;;;;;;;14.77;73.86;98656.05;2226595;80;21271;-82
2022/06/01 05:24:48;;;;;;;45.90;12.23;;;;;;;14.92;73.54;98645.41;2226189;80;21670;-81
2022/06/01 05:27:48;;;;;;;26.25;10.75;;;;;;;15.01;73.47;98651.03;2226120;80;21030;-80
2022/06/01 05:30:48;;;;;;;29.82;13.50;;;;;;;15.02;73.36;98646.20;2225397;80;20999;-81
2022/06/01 05:33:49;;;;;;;19.82;9.83;;;;;;;15.05;73.05;98646.61;2225078;80;21003;-82
2022/06/01 05:36:49;;;;;;;45.20;13.68;;;;;;;15.06;72.90;98647.04;2225882;80;21359;-83
2022/06/01 05:39:50;;;;;;;26.05;8.68;;;;;;;15.09;73.19;98647.88;2226132;80;21762;-81
2022/06/01 05:42:50;;;;;;;17.90;11.63;;;;;;;15.12;72.52;98650.92;2286030;78;21050;-81
2022/06/01 05:45:50;;;;;;;26.27;8.60;;;;;;;15.18;73.03;98650.42;2288339;77;21009;-83
2022/06/01 05:48:51;;;;;;;69.37;11.05;;;;;;;15.24;72.87;98650.81;2288667;78;21229;-80
2022/06/01 05:51:51;;;;;;;24.75;7.65;;;;;;;15.21;73.46;98641.19;2288411;77;21452;-82
2022/06/01 05:54:52;;;;;;;14.70;6.67;;;;;;;15.20;73.14;98642.08;2289381;77;20938;-82
2022/06/01 05:57:52;;;;;;;9.15;5.90;;;;;;;15.23;73.77;98636.79;2289273;78;21443;-80
2022/06/01 06:00:52;;;;;;;7.20;6.03;;;;;;;15.30;73.93;98637.16;2288415;77;21019;-81
2022/06/01 06:03:53;;;;;;;7.85;5.65;;;;;;;15.45;73.48;98630.86;2288402;78;20961;-81
2022/06/01 06:06:53;;;;;;;7.87;5.87;;;;;;;15.66;73.21;98629.80;2290019;77;20933;-82
2022/06/01 06:09:53;;;;;;;9.70;5.10;;;;;;;15.80;72.54;98627.88;2288966;77;21020;-82
2022/06/01 06:12:54;;;;;;;7.87;4.80;;;;;;;15.92;72.24;98632.98;2288415;78;21025;-81
2022/06/01 06:15:54;;;;;;;6.10;5.35;;;;;;;16.03;72.03;98631.97;2288719;77;21009;-82
2022/06/01 06:18:57;;;;;;;17.25;5.70;;;;;;;16.10;71.65;98625.28;2288726;77;21338;-81
2022/06/01 06:21:58;;;;;;;26.55;14.35;;;;;;;16.17;71.14;98619.04;2288861;77;20942;-82
2022/06/01 06:24:58;;;;;;;22.35;7.00;;;;;;;16.26;70.73;98624.62;2288320;77;21375;-80
2022/06/01 06:27:59;;;;;;;23.02;5.92;;;;;;;16.36;71.05;98624.04;2289020;78;20966;-81
2022/06/01 06:30:59;;;;;;;9.23;5.10;;;;;;;16.45;70.58;98627.41;2289049;77;20981;-80
2022/06/01 06:33:59;;;;;;;4.60;4.20;;;;;;;16.51;70.54;98624.71;2289089;77;20941;-80
2022/06/01 06:37:00;;;;;;;5.60;3.80;;;;;;;16.60;70.88;98624.14;2288725;77;21369;-81
2022/06/01 06:40:00;;;;;;;6.03;3.62;;;;;;;16.65;70.76;98616.63;2289385;77;20917;-80
2022/06/01 06:43:01;;;;;;;10.85;3.52;;;;;;;16.66;70.33;98618.36;2282397;77;20982;-82
2022/06/01 06:46:01;;;;;;;6.47;3.30;;;;;;;16.58;70.66;98629.88;2283197;78;21028;-81
2022/06/01 06:49:01;;;;;;;3.30;3.00;;;;;;;16.55;71.09;98617.62;2282570;77;20954;-80
2022/06/01 06:52:02;;;;;;;6.10;3.20;;;;;;;16.68;70.75;98615.25;2283056;77;20981;-81
2022/06/01 06:55:02;;;;;;;10.55;3.80;;;;;;;16.79;71.22;98616.39;2283790;78;20953;-83
2022/06/01 06:58:03;;;;;;;4.33;2.92;;;;;;;16.98;70.75;98608.59;2283684;77;20962;-81
2022/06/01 07:01:03;;;;;;;3.50;3.20;;;;;;;17.20;70.20;98611.71;2283310;77;21330;-80
2022/06/01 07:04:03;;;;;;;3.55;3.17;;;;;;;17.33;69.88;98603.12;2283110;77;20974;-82
2022/06/01 07:07:04;;;;;;;3.80;3.25;;;;;;;17.54;69.48;98597.91;2283944;78;20961;-82
2022/06/01 07:10:06;;;;;;;13.55;3.98;;;;;;;17.68;69.05;98612.59;2281832;78;21028;-81
2022/06/01 07:13:07;;;;;;;20.08;4.20;;;;;;;17.68;68.32;98614.37;2281532;78;21299;-82
2022/06/01 07:16:07;;;;;;;10.30;4.47;;;;;;;17.58;68.23;98620.25;2281830;78;21006;-82
2022/06/01 07:19:08;;;;;;;8.60;3.98;;;;;;;17.51;68.33;98627.86;2282170;77;20969;-81
2022/06/01 07:22:08;;;;;;;6.80;2.87;;;;;;;17.49;67.87;98629.66;2282337;77;20977;-81
2022/06/01 07:25:08;;;;;;;85.45;8.23;;;;;;;17.52;67.46;98633.56;2282270;77;20949;-82
2022/06/01 07:28:10;;;;;;;21.52;5.17;;;;;;;17.56;67.12;98637.01;2281985;77;20978;-82
2022/06/01 07:31:09;;;;;;;19.35;4.58;;;;;;;17.64;66.62;98637.28;2282828;77;20984;-80
2022/06/01 07:34:10;;;;;;;33.70;4.12;;;;;;;17.72;65.98;98638.03;2283204;77;21292;-82
2022/06/01 07:43:48;;;;;;;8.73;2.55;;;;;;;18.24;64.18;98625.06;2280495;77;21399;-79
2022/06/01 07:46:48;;;;;;;8.65;2.52;;;;;;;18.48;62.53;98639.95;2281425;77;21055;-81
2022/06/01 07:49:49;;;;;;;4.37;2.00;;;;;;;18.68;61.95;98638.61;2283236;77;20986;-82
2022/06/01 07:52:49;;;;;;;7.47;2.22;;;;;;;18.91;61.96;98646.43;2283291;77;20894;-80
2022/06/01 07:55:49;;;;;;;2.15;1.90;;;;;;;19.15;60.84;98644.97;2283386;77;21277;-82
2022/06/01 07:58:50;;;;;;;4.37;2.45;;;;;;;19.21;59.94;98651.43;2282494;77;20957;-82
2022/06/01 08:01:50;;;;;;;5.60;2.67;;;;;;;19.22;59.78;98650.52;2282461;77;20985;-82
2022/06/01 08:04:51;;;;;;;6.03;3.42;;;;;;;19.21;59.92;98660.69;2282543;77;21352;-83
2022/06/01 08:07:51;;;;;;;3.15;2.15;;;;;;;19.35;59.76;98655.91;2281669;78;20937;-81
2022/06/01 08:10:51;;;;;;;2.02;1.82;;;;;;;19.47;58.51;98662.20;2281889;78;21012;-82
2022/06/01 08:13:52;;;;;;;6.20;2.10;;;;;;;19.65;58.52;98671.00;2282242;77;20943;-82
2022/06/01 08:16:56;;;;;;;6.35;1.82;;;;;;;19.85;58.20;98673.55;2280987;78;23523;-82
2022/06/01 08:19:57;;;;;;;4.75;1.70;;;;;;;20.05;57.45;98673.88;2281920;78;21372;-82
2022/06/01 08:22:57;;;;;;;5.92;2.40;;;;;;;20.06;57.08;98675.61;2282326;77;20961;-83
2022/06/01 08:25:57;;;;;;;3.20;1.70;;;;;;;20.04;57.38;98675.66;2281767;78;21029;-81
2022/06/01 08:28:58;;;;;;;14.30;2.70;;;;;;;20.04;57.25;98682.28;2282439;77;21407;-81
2022/06/01 08:31:58;;;;;;;3.50;2.10;;;;;;;20.16;57.36;98679.73;2283347;77;21064;-83
2022/06/01 08:34:59;;;;;;;4.80;2.30;;;;;;;20.46;56.45;98684.61;2282464;77;20993;-82
2022/06/01 08:37:59;;;;;;;3.70;1.85;;;;;;;20.72;55.88;98681.14;2282633;77;21009;-82
2022/06/01 08:40:59;;;;;;;2.30;1.60;;;;;;;20.88;55.09;98681.55;2285283;77;20984;-82
2022/06/01 08:44:00;;;;;;;5.28;2.33;;;;;;;20.92;55.61;98689.36;2303480;77;20984;-79
2022/06/01 08:47:00;;;;;;;3.75;2.17;;;;;;;21.10;54.03;98684.38;2303113;77;20993;-79
2022/06/01 08:50:01;;;;;;;2.25;1.98;;;;;;;21.50;52.64;98687.91;2303414;77;21387;-81
2022/06/01 08:53:01;;;;;;;3.40;1.80;;;;;;;21.47;51.68;98684.02;2303163;77;20995;-81
2022/06/01 08:56:07;;;;;;;3.33;1.87;;;;;;;21.49;51.92;98681.72;2302473;77;20953;-82
2022/06/01 08:59:02;;;;;;;4.20;2.10;;;;;;;21.65;51.67;98677.20;2302784;77;20976;-81
2022/06/01 09:02:05;;;;;;;6.08;2.85;;;;;;;21.85;51.86;98676.06;2303681;77;20985;-82
2022/06/01 09:05:05;;;;;;;4.15;2.40;;;;;;;22.06;51.44;98676.63;2303839;77;20987;-83
2022/06/01 09:08:07;;;;;;;4.67;2.20;;;;;;;22.31;50.76;98667.73;2302548;77;20984;-81
2022/06/01 09:11:06;;;;;;;2.60;2.12;;;;;;;22.43;50.48;98669.45;2304392;77;20987;-82
2022/06/01 09:14:07;;;;;;;5.78;2.50;;;;;;;22.56;49.85;98671.20;2303979;77;21367;-81
2022/06/01 09:17:10;;;;;;;2.87;2.50;;;;;;;22.97;50.52;98673.56;2303380;77;21398;-81
2022/06/01 09:23:30;;;;;;;2.83;2.50;;;;;;;23.08;49.75;98669.13;2302721;77;20983;-82
2022/06/01 09:26:30;;;;;;;6.10;1.90;;;;;;;23.22;49.41;98670.75;2303152;77;20987;-82
2022/06/01 09:29:32;;;;;;;1.90;1.70;;;;;;;23.61;47.75;98668.70;2303381;77;21052;-82
2022/06/01 09:32:31;;;;;;;6.87;2.25;;;;;;;23.63;47.33;98664.18;2302597;77;20989;-82
2022/06/01 09:35:33;;;;;;;6.97;2.50;;;;;;;23.14;47.67;98665.75;2303263;77;20988;-80
2022/06/01 09:38:34;;;;;;;2.52;1.57;;;;;;;22.62;48.38;98668.77;2303045;77;20988;-83
2022/06/01 09:41:36;;;;;;;1.52;1.42;;;;;;;22.80;47.88;98674.72;2288913;77;21026;-82
2022/06/01 09:44:40;;;;;;;10.75;2.12;;;;;;;23.07;47.10;98668.27;2226804;80;20948;-82
2022/06/01 09:47:35;;;;;;;57.13;4.28;;;;;;;23.11;45.21;98664.55;2186560;80;20963;-81
2022/06/01 09:50:35;;;;;;;6.25;1.85;;;;;;;23.24;43.84;98668.02;2227441;80;21027;-81
2022/06/01 09:53:36;;;;;;;4.65;1.80;;;;;;;23.36;44.68;98671.03;2227738;80;21382;-82
2022/06/01 09:56:44;;;;;;;9.63;2.67;;;;;;;23.77;44.11;98668.44;2227137;80;20936;-81
2022/06/01 10:06:17;;;;;;;3.20;2.72;;;;;;;24.44;41.50;98672.08;2225749;80;20995;-81
2022/06/01 10:09:17;;;;;;;3.62;2.00;;;;;;;24.78;40.68;98676.68;2226265;80;20959;-81
2022/06/01 10:12:18;;;;;;;2.55;2.00;;;;;;;24.81;40.42;98679.67;2226503;80;20979;-81
2022/06/01 10:15:18;;;;;;;5.08;1.85;;;;;;;24.81;38.50;98675.20;2225970;80;20997;-83
2022/06/01 10:18:19;;;;;;;3.98;1.82;;;;;;;24.97;38.37;98679.31;2225746;80;21348;-80
2022/06/01 10:21:19;;;;;;;5.78;2.12;;;;;;;24.97;38.37;98679.31;2225988;80;20919;-82
2022/06/01 10:24:20;;;;;;;6.42;1.82;;;;;;;25.02;39.67;98671.51;2226502;80;21043;-82
2022/06/01 10:27:20;;;;;;;1.70;1.60;;;;;;;24.80;39.30;98674.80;2226347;80;20940;-79
2022/06/01 10:30:20;;;;;;;4.62;1.67;;;;;;;24.90;38.32;98666.73;2227213;80;21006;-84
2022/06/01 10:33:21;;;;;;;2.47;1.57;;;;;;;25.03;39.68;98668.37;2226984;80;21022;-83
2022/06/01 10:36:21;;;;;;;4.45;1.70;;;;;;;25.20;37.48;98668.42;2227925;80;21335;-83
2022/06/01 10:39:21;;;;;;;4.45;1.65;;;;;;;25.18;36.81;98668.11;2228003;80;20955;-82
2022/06/01 10:42:22;;;;;;;3.70;1.60;;;;;;;25.26;38.79;98666.78;2228036;77;20995;-82
2022/06/01 10:45:22;;;;;;;8.60;2.50;;;;;;;25.46;37.46;98667.09;2226808;80;20972;-82
2022/06/01 10:48:23;;;;;;;4.62;1.50;;;;;;;25.52;34.76;98680.61;2227393;80;21383;-83
2022/06/01 10:51:23;;;;;;;3.83;1.60;;;;;;;25.47;36.38;98669.30;2227598;80;20982;-83
2022/06/01 10:54:23;;;;;;;3.27;1.20;;;;;;;25.69;37.42;98673.95;2227199;80;21599;-83
2022/06/01 10:57:24;;;;;;;1.42;1.32;;;;;;;25.63;33.85;98676.92;2227823;80;21108;-83
2022/06/01 11:00:24;;;;;;;3.67;1.40;;;;;;;25.40;35.57;98678.97;2227025;80;20983;-83
2022/06/01 11:03:25;;;;;;;3.98;1.42;;;;;;;25.53;35.63;98668.52;2227474;80;21042;-84
2022/06/01 11:06:26;;;;;;;3.35;1.35;;;;;;;25.40;34.28;98670.95;2228194;80;20916;-83
2022/06/01 11:09:25;;;;;;;1.30;1.20;;;;;;;25.58;35.53;98667.80;2227104;80;20967;-84
2022/06/01 11:12:26;;;;;;;2.40;1.45;;;;;;;25.72;34.43;98673.80;2226797;80;20975;-82
2022/06/01 11:15:26;;;;;;;9.45;1.45;;;;;;;25.57;35.15;98672.75;2227331;80;22021;-82
2022/06/01 11:18:27;;;;;;;2.25;1.47;;;;;;;25.45;35.06;98675.19;2225406;80;20975;-82
2022/06/01 11:21:27;;;;;;;3.15;1.30;;;;;;;25.59;34.08;98672.67;2225491;80;20943;-82
2022/06/01 11:24:27;;;;;;;4.87;1.27;;;;;;;25.82;32.51;98675.52;2226218;80;20962;-84
2022/06/01 11:27:28;;;;;;;7.17;1.42;;;;;;;25.99;33.50;98668.33;2225984;80;21424;-83
2022/06/01 11:30:28;;;;;;;2.55;1.22;;;;;;;26.20;33.76;98678.38;2225650;80;21007;-82
2022/06/01 11:33:29;;;;;;;3.30;1.55;;;;;;;26.24;33.95;98675.06;2225447;80;21057;-82
2022/06/01 11:36:29;;;;;;;37.17;4.42;;;;;;;26.33;32.55;98674.59;2225744;79;20970;-82
2022/06/01 11:39:29;;;;;;;25.90;2.80;;;;;;;25.99;33.88;98669.66;2226547;80;20995;-79
2022/06/01 11:42:30;;;;;;;3.52;1.67;;;;;;;26.31;34.27;98663.94;2245231;78;21464;-85
2022/06/01 11:45:30;;;;;;;6.47;1.50;;;;;;;26.65;33.47;98663.44;2279200;77;20978;-84
2022/06/01 11:48:31;;;;;;;1.57;1.40;;;;;;;26.73;31.05;98668.36;2278674;77;20941;-82
2022/06/01 11:51:31;;;;;;;1.25;1.22;;;;;;;26.58;31.45;98663.39;2280849;78;21039;-83
2022/06/01 11:54:33;;;;;;;3.27;1.50;;;;;;;26.50;32.13;98666.50;2280420;77;20958;-85
2022/06/01 11:57:32;;;;;;;1.75;1.32;;;;;;;26.71;30.86;98667.58;2279578;78;21329;-84
2022/06/01 12:00:32;;;;;;;1.42;1.32;;;;;;;26.88;31.67;98669.72;2278651;77;20973;-82
2022/06/01 12:03:33;;;;;;;3.62;1.40;;;;;;;26.54;30.92;98664.52;2278409;77;21002;-81
2022/06/01 12:06:33;;;;;;;2.42;1.30;;;;;;;26.07;31.46;98665.27;2278301;77;21022;-81
2022/06/01 12:09:33;;;;;;;3.00;1.50;;;;;;;25.74;32.15;98672.38;2277671;77;20973;-80
2022/06/01 12:12:34;;;;;;;3.60;1.70;;;;;;;25.60;32.87;98671.73;2278084;78;20973;-82
2022/06/01 12:15:35;;;;;;;2.77;1.55;;;;;;;25.81;33.22;98669.78;2278722;77;21274;-81
2022/06/01 12:18:35;;;;;;;3.02;2.02;;;;;;;25.89;33.32;98672.44;2278802;77;20960;-79
2022/06/01 12:21:36;;;;;;;2.87;2.05;;;;;;;26.20;33.35;98667.67;2278329;78;20946;-79
2022/06/01 12:31:13;;;;;;;7.62;1.82;;;;;;;25.89;32.67;98660.41;2276144;78;20997;-80
2022/06/01 12:34:14;;;;;;;5.35;1.60;;;;;;;25.58;32.35;98669.61;2277989;77;21382;-81
2022/06/01 12:37:14;;;;;;;345.80;28.95;;;;;;;25.25;33.11;98671.73;2277786;78;20985;-80
2022/06/01 12:40:15;;;;;;;36.17;4.20;;;;;;;25.13;33.38;98670.11;2277453;78;21036;-81
2022/06/01 12:43:18;;;;;;;3.15;1.62;;;;;;;25.11;33.02;98670.19;2288795;77;20997;-82
2022/06/01 12:46:15;;;;;;;1.90;1.60;;;;;;;25.08;32.79;98662.33;2302072;77;21056;-84
2022/06/01 12:49:15;;;;;;;1.92;1.45;;;;;;;25.10;33.25;98667.13;2302055;77;21451;-82
2022/06/01 12:52:16;;;;;;;14.50;1.80;;;;;;;25.03;33.55;98664.36;2302086;77;21004;-81
2022/06/01 12:55:17;;;;;;;2.80;1.57;;;;;;;24.95;32.78;98663.84;2302356;77;20965;-81
2022/06/01 12:58:17;;;;;;;3.47;1.52;;;;;;;24.79;32.55;98666.39;2301758;77;21419;-83
2022/06/01 13:01:18;;;;;;;1.77;1.60;;;;;;;24.82;33.22;98674.72;2301501;77;21055;-83
2022/06/01 13:04:17;;;;;;;1.80;1.70;;;;;;;24.84;34.07;98667.03;2301022;77;21015;-82
2022/06/01 13:07:19;;;;;;;2.08;1.85;;;;;;;25.03;34.32;98665.70;2301710;77;21024;-83
2022/06/01 13:10:18;;;;;;;2.12;1.52;;;;;;;24.88;34.19;98665.08;2301998;77;21063;-83
2022/06/01 13:13:20;;;;;;;4.15;1.52;;;;;;;24.77;34.92;98673.14;2303009;77;21032;-82
2022/06/01 13:16:19;;;;;;;2.72;1.95;;;;;;;24.43;34.23;98661.02;2303797;77;21024;-83
2022/06/01 13:19:20;;;;;;;2.35;2.15;;;;;;;24.06;33.93;98665.80;2304265;77;20985;-82
2022/06/01 13:22:21;;;;;;;6.62;2.27;;;;;;;23.92;34.65;98673.08;2304198;77;20949;-83
2022/06/01 13:25:20;;;;;;;4.22;1.80;;;;;;;24.24;35.16;98670.75;2303175;77;20957;-80
2022/06/01 13:28:21;;;;;;;3.37;1.77;;;;;;;24.71;33.87;98664.56;2304168;77;21376;-81
2022/06/01 13:31:21;;;;;;;3.75;1.87;;;;;;;25.17;33.48;98654.36;2304147;77;21019;-82
2022/06/01 13:34:21;;;;;;;53.42;4.58;;;;;;;25.53;32.74;98663.16;2303910;77;20985;-80
2022/06/01 13:37:22;;;;;;;4.87;1.70;;;;;;;25.40;32.68;98660.27;2304514;77;20964;-80
2022/06/01 13:40:22;;;;;;;11.65;2.52;;;;;;;25.60;32.83;98668.59;2304290;77;20972;-80
2022/06/01 13:43:23;;;;;;;2.02;1.80;;;;;;;25.66;33.82;98654.07;2293637;77;21021;-81
2022/06/01 13:46:23;;;;;;;3.50;1.80;;;;;;;25.80;33.64;98645.33;2283082;77;21040;-81
2022/06/01 13:49:23;;;;;;;6.83;1.70;;;;;;;25.89;33.17;98644.36;2283881;78;20899;-82
2022/06/01 13:52:24;;;;;;;3.98;1.62;;;;;;;25.97;33.31;98654.17;2283824;78;20986;-80
2022/06/01 13:55:25;;;;;;;1.75;1.50;;;;;;;25.58;32.44;98660.25;2282880;78;20981;-81
2022/06/01 13:58:25;;;;;;;1.60;1.50;;;;;;;25.37;31.99;98659.55;2282319;78;20945;-85
2022/06/01 14:01:25;;;;;;;3.15;1.60;;;;;;;25.25;32.87;98669.05;2282240;78;21040;-82
2022/06/01 14:04:25;;;;;;;5.08;1.60;;;;;;;24.97;32.82;98660.63;2282219;77;20972;-83
2022/06/01 14:07:26;;;;;;;5.80;2.10;;;;;;;24.64;33.15;98670.67;2281682;78;20958;-83
2022/06/01 14:10:27;;;;;;;4.33;2.20;;;;;;;24.36;33.35;98662.24;2283007;77;20966;-81
2022/06/01 14:13:27;;;;;;;3.30;1.77;;;;;;;24.19;33.90;98672.77;2283988;78;20966;-81
2022/06/01 14:16:27;;;;;;;2.75;1.57;;;;;;;24.10;34.08;98677.58;2283848;78;20997;-79
2022/06/01 14:19:28;;;;;;;2.47;1.60;;;;;;;23.72;36.12;98704.61;2283699;78;21381;-83
2022/06/01 14:22:28;;;;;;;6.53;1.92;;;;;;;22.76;38.75;98693.89;2282178;78;20973;-81
2022/06/01 14:28:47;;;;;;;7.70;1.82;;;;;;;22.23;40.98;98710.09;2283445;78;20970;-81
2022/06/01 14:31:48;;;;;;;14.55;1.90;;;;;;;22.39;41.39;98707.73;2282743;77;20988;-81
2022/06/01 14:34:48;;;;;;;2.65;1.70;;;;;;;22.35;41.03;98710.56;2284060;77;21377;-80
2022/06/01 14:37:48;;;;;;;6.20;1.40;;;;;;;22.24;42.07;98715.82;2284060;77;21332;-80
2022/06/01 14:40:49;;;;;;;6.55;1.80;;;;;;;22.22;41.84;98716.34;2283798;77;20994;-78
2022/06/01 14:43:49;;;;;;;1.95;1.80;;;;;;;21.89;42.45;98721.53;2286640;78;20993;-78